createdAt,value
2022-12-24T00:01:32.391Z,96871.13
2022-12-24T00:03:58.862Z,96874.22
2022-12-24T00:06:25.366Z,96871.97
2022-12-24T00:08:51.916Z,96874.91
2022-12-24T00:11:19.187Z,96855.13
2022-12-24T00:13:45.709Z,96858.38
2022-12-24T00:16:12.145Z,96859.09
2022-12-24T00:18:45.213Z,96865.53
2022-12-24T00:21:12.616Z,96866.13
2022-12-24T00:23:39.896Z,96876.50
2022-12-24T00:26:06.315Z,96878.16
2022-12-24T00:28:32.796Z,96884.66
2022-12-24T00:30:59.376Z,96876.47
2022-12-24T00:33:25.912Z,96873.63
2022-12-24T00:35:53.178Z,96875.38
2022-12-24T00:38:19.721Z,96870.44
2022-12-24T00:40:46.240Z,96869.00
2022-12-24T00:43:12.709Z,96871.38
2022-12-24T00:45:39.149Z,96864.53
2022-12-24T00:48:05.728Z,96876.63
2022-12-24T00:50:32.289Z,96886.50
2022-12-24T00:52:58.912Z,96895.09
2022-12-24T00:55:25.593Z,96908.38
2022-12-24T00:57:52.003Z,96919.69
2022-12-24T01:00:18.638Z,96920.56
2022-12-24T01:02:45.355Z,96922.72
2022-12-24T01:05:12.283Z,96923.44
2022-12-24T01:07:39.993Z,96930.63
2022-12-24T01:10:06.993Z,96921.03
2022-12-24T01:12:33.572Z,96924.41
2022-12-24T01:15:00.088Z,96921.84
2022-12-24T01:17:26.520Z,96921.84
2022-12-24T01:19:52.996Z,96928.78
2022-12-24T01:22:19.627Z,96932.66
2022-12-24T01:24:46.143Z,96925.69
2022-12-24T01:27:12.605Z,96932.06
2022-12-24T01:29:39.163Z,96944.34
2022-12-24T01:32:05.826Z,96941.78
2022-12-24T01:34:32.387Z,96944.66
2022-12-24T01:36:58.833Z,96936.34
2022-12-24T01:39:25.317Z,96923.31
2022-12-24T01:42:10.567Z,96926.44
2022-12-24T01:44:40.850Z,96934.72
2022-12-24T01:47:15.939Z,96940.63
2022-12-24T01:49:45.380Z,96934.75
2022-12-24T01:52:17.095Z,96920.59
2022-12-24T01:54:46.535Z,96933.69
2022-12-24T01:57:18.586Z,96938.06
2022-12-24T01:59:49.535Z,96952.03
2022-12-24T02:02:16.747Z,96957.06
2022-12-24T02:04:53.782Z,96968.56
2022-12-24T02:07:20.533Z,96959.59
2022-12-24T02:09:47.724Z,96971.13
2022-12-24T02:12:14.216Z,96971.97
2022-12-24T02:14:40.717Z,96966.63
2022-12-24T02:17:13.373Z,96970.81
2022-12-24T02:19:58.649Z,96965.34
2022-12-24T02:22:40.170Z,96954.72
2022-12-24T02:25:09.685Z,96958.72
2022-12-24T02:27:39.310Z,96967.41
2022-12-24T02:30:08.196Z,96969.66
2022-12-24T02:32:34.695Z,96961.53
2022-12-24T02:35:05.685Z,96974.53
2022-12-24T02:37:34.551Z,96970.31
2022-12-24T02:40:24.237Z,96984.72
2022-12-24T02:42:53.925Z,96994.59
2022-12-24T02:45:28.864Z,96999.81
2022-12-24T02:47:55.951Z,96999.66
2022-12-24T02:50:22.489Z,96998.59
2022-12-24T02:52:49.047Z,97004.25
2022-12-24T02:55:33.715Z,96986.50
2022-12-24T02:58:23.432Z,96987.66
2022-12-24T03:00:49.905Z,96993.63
2022-12-24T03:03:33.678Z,97001.84
2022-12-24T03:06:23.156Z,96992.59
2022-12-24T03:08:56.936Z,96993.97
2022-12-24T03:11:23.408Z,97010.22
2022-12-24T03:13:50.898Z,97004.56
2022-12-24T03:16:21.495Z,97009.31
2022-12-24T03:18:49.248Z,97007.44
2022-12-24T03:21:15.669Z,97008.47
2022-12-24T03:23:42.313Z,97012.47
2022-12-24T03:26:10.710Z,97016.72
2022-12-24T03:28:38.640Z,97027.34
2022-12-24T03:31:06.065Z,97009.94
2022-12-24T03:33:32.842Z,97022.56
2022-12-24T03:35:59.418Z,97021.97
2022-12-24T03:38:25.973Z,97005.00
2022-12-24T03:40:52.646Z,97008.91
2022-12-24T03:43:19.112Z,97031.88
2022-12-24T03:45:45.626Z,97035.84
2022-12-24T03:48:12.061Z,97034.66
2022-12-24T03:50:38.488Z,97028.81
2022-12-24T03:53:04.976Z,97039.97
2022-12-24T03:55:31.415Z,97046.09
2022-12-24T03:57:57.881Z,97047.22
2022-12-24T04:00:24.404Z,97070.25
2022-12-24T04:02:51.025Z,97057.19
2022-12-24T04:05:18.727Z,97069.47
2022-12-24T04:07:45.247Z,97088.72
2022-12-24T04:10:11.796Z,97081.47
2022-12-24T04:12:38.256Z,97097.53
2022-12-24T04:15:05.475Z,97080.47
2022-12-24T04:17:32.149Z,97100.09
2022-12-24T04:19:59.543Z,97093.91
2022-12-24T04:22:26.590Z,97081.59
2022-12-24T04:24:53.030Z,97092.84
2022-12-24T04:27:19.467Z,97100.84
2022-12-24T04:29:45.956Z,97094.28
2022-12-24T04:32:12.482Z,97107.56
2022-12-24T04:34:38.980Z,97099.84
2022-12-24T04:37:05.530Z,97095.75
2022-12-24T04:39:32.029Z,97091.13
2022-12-24T04:41:58.455Z,97075.91
2022-12-24T04:44:24.896Z,97073.22
2022-12-24T04:46:51.423Z,97082.19
2022-12-24T04:49:17.839Z,97080.97
2022-12-24T04:51:44.276Z,97085.06
2022-12-24T04:54:10.748Z,97093.72
2022-12-24T04:56:37.241Z,97087.72
2022-12-24T04:59:03.701Z,97099.78
2022-12-24T05:01:31.115Z,97106.78
2022-12-24T05:03:57.813Z,97103.69
2022-12-24T05:06:26.464Z,97110.69
2022-12-24T05:08:56.549Z,97137.72
2022-12-24T05:11:23.398Z,97144.00
2022-12-24T05:13:49.900Z,97142.88
2022-12-24T05:16:18.009Z,97139.00
2022-12-24T05:18:44.563Z,97136.00
2022-12-24T05:21:11.899Z,97129.19
2022-12-24T05:23:57.235Z,97141.75
2022-12-24T05:26:26.692Z,97141.75
2022-12-24T05:28:54.510Z,97144.94
2022-12-24T05:31:21.923Z,97145.16
2022-12-24T05:33:48.485Z,97141.66
2022-12-24T05:36:15.343Z,97149.41
2022-12-24T05:38:42.089Z,97144.47
2022-12-24T05:41:09.461Z,97143.44
2022-12-24T05:43:38.955Z,97144.94
2022-12-24T05:46:07.273Z,97145.69
2022-12-24T05:48:34.200Z,97162.34
2022-12-24T05:51:03.784Z,97142.59
2022-12-24T05:53:30.254Z,97121.81
2022-12-24T05:56:02.351Z,97132.19
2022-12-24T05:58:28.796Z,97134.34
2022-12-24T06:00:55.237Z,97136.59
2022-12-24T06:03:21.658Z,97143.84
2022-12-24T06:05:48.132Z,97130.09
2022-12-24T06:08:14.603Z,97159.78
2022-12-24T06:10:41.042Z,97164.00
2022-12-24T06:13:07.496Z,97164.44
2022-12-24T06:15:35.825Z,97175.19
2022-12-24T06:18:02.347Z,97163.25
2022-12-24T06:20:28.828Z,97162.53
2022-12-24T06:22:55.257Z,97176.09
2022-12-24T06:25:21.776Z,97168.91
2022-12-24T06:27:48.241Z,97176.50
2022-12-24T06:30:14.781Z,97188.22
2022-12-24T06:32:41.217Z,97188.22
2022-12-24T06:35:07.669Z,97193.34
2022-12-24T06:37:34.102Z,97179.06
2022-12-24T06:40:00.535Z,97182.38
2022-12-24T06:42:26.998Z,97189.34
2022-12-24T06:44:53.449Z,97188.72
2022-12-24T06:47:20.327Z,97191.53
2022-12-24T06:49:46.778Z,97194.44
2022-12-24T06:52:14.331Z,97206.06
2022-12-24T06:54:40.841Z,97211.31
2022-12-24T06:57:07.363Z,97194.00
2022-12-24T06:59:34.000Z,97203.28
2022-12-24T07:02:00.567Z,97197.50
2022-12-24T07:04:27.200Z,97203.34
2022-12-24T07:06:53.761Z,97203.31
2022-12-24T07:09:20.258Z,97205.63
2022-12-24T07:11:46.729Z,97206.13
2022-12-24T07:14:13.195Z,97211.31
2022-12-24T07:16:39.700Z,97203.97
2022-12-24T07:19:06.309Z,97208.53
2022-12-24T07:21:32.734Z,97218.88
2022-12-24T07:23:59.197Z,97213.25
2022-12-24T07:26:25.635Z,97228.31
2022-12-24T07:28:52.077Z,97228.22
2022-12-24T07:31:18.639Z,97233.69
2022-12-24T07:33:45.096Z,97248.47
2022-12-24T07:36:15.841Z,97255.94
2022-12-24T07:38:42.383Z,97258.72
2022-12-24T07:41:08.815Z,97251.22
2022-12-24T07:43:35.685Z,97265.09
2022-12-24T07:46:02.277Z,97273.56
2022-12-24T07:48:29.377Z,97269.91
2022-12-24T07:50:56.471Z,97275.75
2022-12-24T07:53:23.255Z,97276.56
2022-12-24T07:55:49.836Z,97285.97
2022-12-24T07:58:16.416Z,97297.31
2022-12-24T08:00:42.859Z,97285.44
2022-12-24T08:03:16.010Z,97284.75
2022-12-24T08:05:42.793Z,97287.50
2022-12-24T08:08:09.228Z,97292.06
2022-12-24T08:10:38.625Z,97289.41
2022-12-24T08:13:05.222Z,97311.41
2022-12-24T08:15:31.967Z,97301.28
2022-12-24T08:17:58.710Z,97314.06
2022-12-24T08:20:25.283Z,97311.66
2022-12-24T08:22:53.143Z,97304.41
2022-12-24T08:25:20.497Z,97302.97
2022-12-24T08:27:47.223Z,97311.94
2022-12-24T08:30:20.674Z,97314.84
2022-12-24T08:32:47.644Z,97326.47
2022-12-24T08:35:14.197Z,97324.66
2022-12-24T08:37:40.649Z,97326.47
2022-12-24T08:40:07.474Z,97325.72
2022-12-24T08:42:33.994Z,97329.38
2022-12-24T08:45:00.486Z,97341.94
2022-12-24T08:47:27.189Z,97338.06
2022-12-24T08:49:53.664Z,97343.59
2022-12-24T08:52:20.105Z,97335.94
2022-12-24T08:54:46.729Z,97337.06
2022-12-24T08:57:14.569Z,97337.91
2022-12-24T08:59:41.056Z,97343.13
2022-12-24T09:02:08.655Z,97336.97
2022-12-24T09:04:39.451Z,97337.56
2022-12-24T09:07:06.631Z,97337.56
2022-12-24T09:09:37.872Z,97345.09
2022-12-24T09:12:06.119Z,97349.16
2022-12-24T09:14:33.643Z,97356.88
2022-12-24T09:17:00.207Z,97361.22
2022-12-24T09:19:27.710Z,97365.38
2022-12-24T09:21:54.982Z,97364.28
2022-12-24T09:24:21.488Z,97369.78
2022-12-24T09:26:55.679Z,97372.84
2022-12-24T09:29:23.920Z,97377.19
2022-12-24T09:31:50.828Z,97374.03
2022-12-24T09:34:17.360Z,97387.88
2022-12-24T09:36:43.833Z,97388.72
2022-12-24T09:39:10.292Z,97395.97
2022-12-24T09:41:55.593Z,97400.69
2022-12-24T09:44:40.868Z,97390.28
2022-12-24T09:47:26.491Z,97396.00
2022-12-24T09:49:54.847Z,97396.44
2022-12-24T09:52:26.876Z,97392.34
2022-12-24T09:54:58.351Z,97393.06
2022-12-24T09:57:34.710Z,97406.81
2022-12-24T10:00:01.331Z,97414.19
2022-12-24T10:02:28.062Z,97415.53
2022-12-24T10:04:54.769Z,97406.31
2022-12-24T10:07:21.236Z,97406.91
2022-12-24T10:09:53.916Z,97405.91
2022-12-24T10:12:39.796Z,97409.25
2022-12-24T10:15:24.316Z,97408.47
2022-12-24T10:18:05.545Z,97406.38
2022-12-24T10:20:39.033Z,97399.72
2022-12-24T10:23:11.535Z,97394.94
2022-12-24T10:25:38.059Z,97420.63
2022-12-24T10:28:12.028Z,97400.16
2022-12-24T10:30:39.006Z,97406.66
2022-12-24T10:33:10.898Z,97411.03
2022-12-24T10:35:40.494Z,97412.41
2022-12-24T10:38:08.637Z,97419.53
2022-12-24T10:40:39.756Z,97409.91
2022-12-24T10:43:14.579Z,97415.69
2022-12-24T10:45:44.015Z,97416.59
2022-12-24T10:48:14.815Z,97411.13
2022-12-24T10:50:45.046Z,97416.50
2022-12-24T10:53:17.516Z,97432.41
2022-12-24T10:55:44.072Z,97427.63
2022-12-24T10:58:15.573Z,97438.09
2022-12-24T11:00:42.371Z,97435.66
2022-12-24T11:03:21.596Z,97435.56
2022-12-24T11:05:59.800Z,97441.44
2022-12-24T11:08:26.328Z,97434.28
2022-12-24T11:10:55.756Z,97436.19
2022-12-24T11:13:37.309Z,97429.25
2022-12-24T11:16:14.929Z,97451.75
2022-12-24T11:18:52.374Z,97451.75
2022-12-24T11:21:20.607Z,97452.72
2022-12-24T11:24:13.514Z,97457.66
2022-12-24T11:26:42.163Z,97453.97
2022-12-24T11:29:08.573Z,97458.34
2022-12-24T11:31:37.375Z,97465.94
2022-12-24T11:34:36.605Z,97467.72
2022-12-24T11:37:22.864Z,97461.25
2022-12-24T11:39:53.947Z,97446.88
2022-12-24T11:42:40.871Z,97439.91
2022-12-24T11:45:17.780Z,97449.41
2022-12-24T11:47:44.383Z,97446.34
2022-12-24T11:50:24.969Z,97445.50
2022-12-24T11:52:56.324Z,97449.75
2022-12-24T11:55:41.793Z,97444.53
2022-12-24T11:58:11.384Z,97437.69
2022-12-24T12:00:39.347Z,97438.59
2022-12-24T12:03:12.418Z,97426.47
2022-12-24T12:05:39.066Z,97436.66
2022-12-24T12:08:14.066Z,97436.31
2022-12-24T12:10:42.491Z,97436.06
2022-12-24T12:13:15.991Z,97435.09
2022-12-24T12:15:49.009Z,97429.31
2022-12-24T12:18:16.451Z,97440.13
2022-12-24T12:20:45.687Z,97422.16
2022-12-24T12:23:28.476Z,97434.34
2022-12-24T12:26:01.021Z,97441.81
2022-12-24T12:28:35.318Z,97437.38
2022-12-24T12:31:10.370Z,97452.75
2022-12-24T12:33:43.191Z,97441.25
2022-12-24T12:36:10.930Z,97441.72
2022-12-24T12:38:37.456Z,97450.94
2022-12-24T12:41:07.954Z,97450.13
2022-12-24T12:43:40.392Z,97442.00
2022-12-24T12:46:14.419Z,97454.06
2022-12-24T12:48:40.844Z,97450.34
2022-12-24T12:51:07.260Z,97435.03
2022-12-24T12:53:52.478Z,97445.75
2022-12-24T12:56:33.770Z,97443.19
2022-12-24T12:59:17.520Z,97457.38
2022-12-24T13:01:58.571Z,97457.03
2022-12-24T13:04:28.105Z,97465.22
2022-12-24T13:07:08.049Z,97474.19
2022-12-24T13:09:57.582Z,97473.22
2022-12-24T13:12:42.780Z,97470.63
2022-12-24T13:15:27.839Z,97480.91
2022-12-24T13:17:57.322Z,97475.41
2022-12-24T13:20:29.677Z,97479.28
2022-12-24T13:22:56.193Z,97472.50
2022-12-24T13:25:26.210Z,97469.81
2022-12-24T13:27:52.970Z,97471.09
2022-12-24T13:30:33.540Z,97478.34
2022-12-24T13:33:00.003Z,97482.78
2022-12-24T13:35:30.745Z,97474.97
2022-12-24T13:38:20.323Z,97480.16
2022-12-24T13:40:46.777Z,97491.06
2022-12-24T13:43:13.359Z,97496.97
2022-12-24T13:45:39.914Z,97509.84
2022-12-24T13:48:06.335Z,97507.91
2022-12-24T13:50:48.092Z,97521.13
2022-12-24T13:53:36.896Z,97517.56
2022-12-24T13:56:12.631Z,97529.31
2022-12-24T13:58:44.149Z,97528.25
2022-12-24T14:01:17.027Z,97535.13
2022-12-24T14:03:48.739Z,97538.69
2022-12-24T14:06:32.240Z,97543.44
2022-12-24T14:09:08.607Z,97544.13
2022-12-24T14:11:53.325Z,97551.75
2022-12-24T14:14:33.633Z,97560.38
2022-12-24T14:17:01.853Z,97563.06
2022-12-24T14:19:37.057Z,97567.47
2022-12-24T14:22:20.656Z,97567.34
2022-12-24T14:24:51.936Z,97557.06
2022-12-24T14:27:21.644Z,97571.16
2022-12-24T14:29:53.441Z,97577.78
2022-12-24T14:32:19.938Z,97587.13
2022-12-24T14:34:46.426Z,97586.00
2022-12-24T14:37:14.713Z,97593.34
2022-12-24T14:39:43.318Z,97602.06
2022-12-24T14:42:27.944Z,97597.22
2022-12-24T14:45:03.500Z,97596.66
2022-12-24T14:47:38.635Z,97597.16
2022-12-24T14:50:23.811Z,97602.69
2022-12-24T14:53:09.357Z,97618.53
2022-12-24T14:55:40.355Z,97608.28
2022-12-24T14:58:22.289Z,97618.69
2022-12-24T15:00:49.357Z,97624.16
2022-12-24T15:03:17.509Z,97637.97
2022-12-24T15:05:44.547Z,97648.09
2022-12-24T15:08:14.933Z,97646.84
2022-12-24T15:10:42.964Z,97648.66
2022-12-24T15:13:22.503Z,97654.31
2022-12-24T15:15:52.967Z,97652.31
2022-12-24T15:18:22.605Z,97649.53
2022-12-24T15:20:51.034Z,97655.34
2022-12-24T15:23:22.117Z,97661.56
2022-12-24T15:25:49.045Z,97667.16
2022-12-24T15:28:19.609Z,97670.13
2022-12-24T15:30:46.449Z,97676.13
2022-12-24T15:33:12.875Z,97678.97
2022-12-24T15:35:42.348Z,97682.63
2022-12-24T15:38:27.412Z,97691.59
2022-12-24T15:40:54.572Z,97694.88
2022-12-24T15:43:21.200Z,97701.31
2022-12-24T15:45:50.979Z,97699.22
2022-12-24T15:48:23.668Z,97703.00
2022-12-24T15:50:58.683Z,97708.94
2022-12-24T15:53:51.420Z,97714.16
2022-12-24T15:56:27.043Z,97715.34
2022-12-24T15:59:10.908Z,97711.25
2022-12-24T16:01:37.933Z,97714.53
2022-12-24T16:04:12.616Z,97713.91
2022-12-24T16:06:59.401Z,97724.50
2022-12-24T16:09:35.027Z,97718.53
2022-12-24T16:12:03.648Z,97719.22
2022-12-24T16:14:32.204Z,97726.00
2022-12-24T16:16:58.762Z,97726.97
2022-12-24T16:19:27.729Z,97738.09
2022-12-24T16:21:58.660Z,97727.63
2022-12-24T16:24:29.601Z,97731.91
2022-12-24T16:26:57.066Z,97726.63
2022-12-24T16:29:24.048Z,97740.72
2022-12-24T16:31:52.295Z,97746.69
2022-12-24T16:34:20.615Z,97752.69
2022-12-24T16:36:47.195Z,97750.09
2022-12-24T16:39:24.008Z,97744.59
2022-12-24T16:42:12.502Z,97756.97
2022-12-24T16:44:39.455Z,97760.50
2022-12-24T16:47:06.577Z,97755.81
2022-12-24T16:49:36.298Z,97753.25
2022-12-24T16:52:02.767Z,97754.81
2022-12-24T16:54:30.070Z,97748.72
2022-12-24T16:56:56.585Z,97752.66
2022-12-24T16:59:23.989Z,97752.41
2022-12-24T17:01:51.076Z,97751.94
2022-12-24T17:04:18.174Z,97757.53
2022-12-24T17:06:44.852Z,97754.00
2022-12-24T17:09:11.696Z,97753.63
2022-12-24T17:11:38.187Z,97763.41
2022-12-24T17:14:08.303Z,97766.72
2022-12-24T17:16:37.409Z,97761.69
2022-12-24T17:19:04.178Z,97768.66
2022-12-24T17:21:30.610Z,97767.84
2022-12-24T17:23:57.091Z,97770.84
2022-12-24T17:26:23.629Z,97770.03
2022-12-24T17:28:52.815Z,97772.72
2022-12-24T17:31:19.288Z,97767.94
2022-12-24T17:33:45.758Z,97768.38
2022-12-24T17:36:12.283Z,97763.38
2022-12-24T17:38:38.760Z,97771.13
2022-12-24T17:41:10.753Z,97775.84
2022-12-24T17:43:37.415Z,97779.88
2022-12-24T17:46:07.776Z,97788.00
2022-12-24T17:48:34.201Z,97794.38
2022-12-24T17:51:08.578Z,97801.50
2022-12-24T17:53:35.531Z,97802.50
2022-12-24T17:56:02.069Z,97797.59
2022-12-24T17:58:29.286Z,97803.53
2022-12-24T18:00:56.445Z,97800.78
2022-12-24T18:03:23.358Z,97807.56
2022-12-24T18:05:50.058Z,97812.81
2022-12-24T18:08:16.526Z,97824.84
2022-12-24T18:10:42.950Z,97817.19
2022-12-24T18:13:14.017Z,97803.63
2022-12-24T18:15:45.457Z,97809.81
2022-12-24T18:18:12.001Z,97816.31
2022-12-24T18:20:46.056Z,97813.34
2022-12-24T18:23:13.273Z,97808.00
2022-12-24T18:25:39.714Z,97815.47
2022-12-24T18:28:06.175Z,97814.38
2022-12-24T18:30:32.668Z,97822.50
2022-12-24T18:32:59.909Z,97821.84
2022-12-24T18:35:26.836Z,97820.56
2022-12-24T18:37:53.439Z,97823.38
2022-12-24T18:40:20.536Z,97832.75
2022-12-24T18:42:47.033Z,97842.19
2022-12-24T18:45:13.527Z,97840.81
2022-12-24T18:47:39.976Z,97849.56
2022-12-24T18:50:06.765Z,97841.69
2022-12-24T18:52:33.316Z,97839.22
2022-12-24T18:54:59.763Z,97839.13
2022-12-24T18:57:26.254Z,97839.25
2022-12-24T18:59:52.712Z,97843.53
2022-12-24T19:02:19.176Z,97854.47
2022-12-24T19:04:45.729Z,97854.25
2022-12-24T19:07:12.180Z,97855.34
2022-12-24T19:09:38.705Z,97855.78
2022-12-24T19:12:05.256Z,97862.91
2022-12-24T19:14:31.932Z,97863.00
2022-12-24T19:16:58.508Z,97852.53
2022-12-24T19:19:25.243Z,97862.56
2022-12-24T19:21:51.894Z,97876.13
2022-12-24T19:24:18.438Z,97871.94
2022-12-24T19:26:44.914Z,97875.78
2022-12-24T19:29:11.432Z,97877.59
2022-12-24T19:31:37.953Z,97880.25
2022-12-24T19:34:04.496Z,97890.06
2022-12-24T19:36:31.120Z,97882.38
2022-12-24T19:38:58.288Z,97888.75
2022-12-24T19:41:25.971Z,97892.81
2022-12-24T19:43:53.600Z,97890.00
2022-12-24T19:46:21.580Z,97891.69
2022-12-24T19:48:49.796Z,97905.63
2022-12-24T19:51:16.892Z,97898.09
2022-12-24T19:53:43.439Z,97901.19
2022-12-24T19:56:10.248Z,97906.88
2022-12-24T19:58:37.015Z,97912.00
2022-12-24T20:01:12.726Z,97911.34
2022-12-24T20:03:41.676Z,97921.81
2022-12-24T20:06:11.420Z,97926.47
2022-12-24T20:08:38.709Z,97927.16
2022-12-24T20:11:06.538Z,97914.53
2022-12-24T20:13:36.808Z,97915.72
2022-12-24T20:16:05.335Z,97917.72
2022-12-24T20:18:31.791Z,97913.66
2022-12-24T20:21:01.858Z,97913.25
2022-12-24T20:23:28.290Z,97911.94
2022-12-24T20:25:59.096Z,97908.34
2022-12-24T20:28:26.457Z,97905.44
2022-12-24T20:30:52.983Z,97912.06
2022-12-24T20:33:20.145Z,97916.25
2022-12-24T20:35:46.704Z,97914.09
2022-12-24T20:38:13.235Z,97921.13
2022-12-24T20:40:40.501Z,97936.41
2022-12-24T20:43:07.402Z,97940.34
2022-12-24T20:45:34.782Z,97945.66
2022-12-24T20:48:01.325Z,97943.78
2022-12-24T20:50:28.194Z,97944.41
2022-12-24T20:52:54.759Z,97943.56
2022-12-24T20:55:21.483Z,97941.88
2022-12-24T20:57:48.371Z,97944.84
2022-12-24T21:00:15.076Z,97942.72
2022-12-24T21:02:41.922Z,97940.97
2022-12-24T21:05:08.919Z,97947.63
2022-12-24T21:07:35.849Z,97945.22
2022-12-24T21:10:02.279Z,97938.94
2022-12-24T21:12:47.461Z,97931.03
2022-12-24T21:15:14.220Z,97939.25
2022-12-24T21:17:40.924Z,97939.44
2022-12-24T21:20:07.682Z,97934.41
2022-12-24T21:22:34.195Z,97936.44
2022-12-24T21:25:00.684Z,97933.47
2022-12-24T21:27:28.347Z,97937.09
2022-12-24T21:29:54.809Z,97944.13
2022-12-24T21:32:21.600Z,97938.03
2022-12-24T21:34:48.147Z,97940.09
2022-12-24T21:37:14.617Z,97950.13
2022-12-24T21:39:41.082Z,97947.63
2022-12-24T21:42:07.582Z,97949.25
2022-12-24T21:44:37.305Z,97951.56
2022-12-24T21:47:04.644Z,97954.63
2022-12-24T21:49:49.539Z,97958.56
2022-12-24T21:52:16.007Z,97962.72
2022-12-24T21:54:42.469Z,97955.25
2022-12-24T21:57:27.866Z,97946.00
2022-12-24T22:00:18.419Z,97950.50
2022-12-24T22:02:45.109Z,97934.47
2022-12-24T22:05:13.396Z,97934.41
2022-12-24T22:07:59.074Z,97942.47
2022-12-24T22:10:44.001Z,97940.91
2022-12-24T22:13:10.890Z,97939.72
2022-12-24T22:15:42.126Z,97934.25
2022-12-24T22:18:08.624Z,97933.91
2022-12-24T22:20:35.951Z,97931.75
2022-12-24T22:23:02.581Z,97930.13
2022-12-24T22:25:29.698Z,97925.81
2022-12-24T22:27:56.164Z,97929.44
2022-12-24T22:30:22.704Z,97933.81
2022-12-24T22:32:49.174Z,97932.56
2022-12-24T22:35:15.990Z,97931.31
2022-12-24T22:37:42.616Z,97926.75
2022-12-24T22:40:09.547Z,97933.97
2022-12-24T22:42:36.135Z,97932.34
2022-12-24T22:45:02.642Z,97925.00
2022-12-24T22:47:29.484Z,97931.59
2022-12-24T22:49:56.137Z,97928.88
2022-12-24T22:52:24.254Z,97934.25
2022-12-24T22:54:50.731Z,97931.59
2022-12-24T22:57:17.301Z,97940.16
2022-12-24T22:59:43.795Z,97940.72
2022-12-24T23:02:11.135Z,97953.25
2022-12-24T23:04:38.803Z,97952.84
2022-12-24T23:07:06.887Z,97948.34
2022-12-24T23:09:33.597Z,97951.97
2022-12-24T23:12:00.222Z,97943.13
2022-12-24T23:14:45.887Z,97949.19
2022-12-24T23:17:12.340Z,97955.34
2022-12-24T23:19:38.767Z,97956.88
2022-12-24T23:22:06.176Z,97958.59
2022-12-24T23:24:33.394Z,97945.81
2022-12-24T23:27:01.546Z,97946.09
2022-12-24T23:29:28.983Z,97940.13
2022-12-24T23:31:55.436Z,97940.41
2022-12-24T23:34:21.924Z,97939.16
2022-12-24T23:36:48.601Z,97943.88
2022-12-24T23:39:15.281Z,97940.63
2022-12-24T23:41:41.869Z,97939.66
2022-12-24T23:44:08.398Z,97938.19
2022-12-24T23:46:34.923Z,97942.47
2022-12-24T23:49:01.476Z,97948.13
2022-12-24T23:51:28.308Z,97942.16
2022-12-24T23:53:55.884Z,97949.69
2022-12-24T23:56:23.181Z,97958.34
2022-12-24T23:58:49.682Z,97949.38
